sensor_id;sensor_type;location;lat;lon;timestamp;P1;durP1;ratioP1;P2;durP2;ratioP2
49340;SDS011;35209;51.050;13.678;2024-03-07T00:04:40;28.88;;;16.50;;
49340;SDS011;35209;51.050;13.678;2024-03-07T00:09:42;25.13;;;17.20;;
49340;SDS011;35209;51.050;13.678;2024-03-07T00:14:44;25.38;;;17.70;;
49340;SDS011;35209;51.050;13.678;2024-03-07T00:19:46;29.45;;;17.90;;
49340;SDS011;35209;51.050;13.678;2024-03-07T00:24:49;30.77;;;17.23;;
49340;SDS011;35209;51.050;13.678;2024-03-07T00:29:51;36.40;;;19.05;;
49340;SDS011;35209;51.050;13.678;2024-03-07T00:34:56;32.53;;;18.98;;
49340;SDS011;35209;51.050;13.678;2024-03-07T00:40:01;34.55;;;18.50;;
49340;SDS011;35209;51.050;13.678;2024-03-07T00:45:03;33.90;;;18.52;;
49340;SDS011;35209;51.050;13.678;2024-03-07T00:50:05;35.00;;;18.95;;
49340;SDS011;35209;51.050;13.678;2024-03-07T00:55:10;25.92;;;17.60;;
49340;SDS011;35209;51.050;13.678;2024-03-07T01:00:12;35.10;;;17.85;;
49340;SDS011;35209;51.050;13.678;2024-03-07T01:05:16;31.63;;;18.02;;
49340;SDS011;35209;51.050;13.678;2024-03-07T01:10:19;31.15;;;18.73;;
49340;SDS011;35209;51.050;13.678;2024-03-07T01:15:21;44.58;;;19.67;;
49340;SDS011;35209;51.050;13.678;2024-03-07T01:20:23;30.50;;;17.90;;
49340;SDS011;35209;51.050;13.678;2024-03-07T01:25:26;33.38;;;18.23;;
49340;SDS011;35209;51.050;13.678;2024-03-07T01:30:28;33.40;;;18.83;;
49340;SDS011;35209;51.050;13.678;2024-03-07T01:35:30;35.00;;;18.75;;
49340;SDS011;35209;51.050;13.678;2024-03-07T01:40:32;27.13;;;17.30;;
49340;SDS011;35209;51.050;13.678;2024-03-07T01:45:34;26.08;;;17.38;;
49340;SDS011;35209;51.050;13.678;2024-03-07T01:50:38;30.98;;;18.45;;
49340;SDS011;35209;51.050;13.678;2024-03-07T01:55:40;28.38;;;18.38;;
49340;SDS011;35209;51.050;13.678;2024-03-07T02:00:42;38.25;;;19.35;;
49340;SDS011;35209;51.050;13.678;2024-03-07T02:05:45;31.58;;;18.00;;
49340;SDS011;35209;51.050;13.678;2024-03-07T02:10:47;42.92;;;18.88;;
49340;SDS011;35209;51.050;13.678;2024-03-07T02:15:50;39.22;;;19.10;;
49340;SDS011;35209;51.050;13.678;2024-03-07T02:20:52;40.05;;;20.13;;
49340;SDS011;35209;51.050;13.678;2024-03-07T02:25:54;33.70;;;19.02;;
49340;SDS011;35209;51.050;13.678;2024-03-07T02:30:56;33.63;;;18.60;;
49340;SDS011;35209;51.050;13.678;2024-03-07T02:35:58;36.80;;;19.48;;
49340;SDS011;35209;51.050;13.678;2024-03-07T02:41:00;38.13;;;20.35;;
49340;SDS011;35209;51.050;13.678;2024-03-07T02:46:02;36.63;;;19.50;;
49340;SDS011;35209;51.050;13.678;2024-03-07T02:51:04;37.90;;;20.25;;
49340;SDS011;35209;51.050;13.678;2024-03-07T02:56:07;28.67;;;18.52;;
49340;SDS011;35209;51.050;13.678;2024-03-07T03:01:09;34.67;;;19.50;;
49340;SDS011;35209;51.050;13.678;2024-03-07T03:06:12;38.97;;;20.27;;
49340;SDS011;35209;51.050;13.678;2024-03-07T03:11:14;32.33;;;19.33;;
49340;SDS011;35209;51.050;13.678;2024-03-07T03:16:16;41.38;;;20.10;;
49340;SDS011;35209;51.050;13.678;2024-03-07T03:21:20;36.33;;;20.73;;
49340;SDS011;35209;51.050;13.678;2024-03-07T03:26:23;39.65;;;19.98;;
49340;SDS011;35209;51.050;13.678;2024-03-07T03:31:25;36.97;;;18.77;;
49340;SDS011;35209;51.050;13.678;2024-03-07T03:36:27;40.90;;;20.13;;
49340;SDS011;35209;51.050;13.678;2024-03-07T03:41:28;50.10;;;21.73;;
49340;SDS011;35209;51.050;13.678;2024-03-07T03:46:31;37.55;;;19.65;;
49340;SDS011;35209;51.050;13.678;2024-03-07T03:51:33;45.30;;;21.02;;
49340;SDS011;35209;51.050;13.678;2024-03-07T03:56:35;39.33;;;20.73;;
49340;SDS011;35209;51.050;13.678;2024-03-07T04:01:38;32.40;;;19.35;;
49340;SDS011;35209;51.050;13.678;2024-03-07T04:06:40;36.92;;;20.30;;
49340;SDS011;35209;51.050;13.678;2024-03-07T04:11:44;43.50;;;22.23;;
49340;SDS011;35209;51.050;13.678;2024-03-07T04:16:47;38.10;;;21.77;;
49340;SDS011;35209;51.050;13.678;2024-03-07T04:21:48;46.80;;;22.13;;
49340;SDS011;35209;51.050;13.678;2024-03-07T04:26:50;43.03;;;21.98;;
49340;SDS011;35209;51.050;13.678;2024-03-07T04:31:55;38.22;;;21.85;;
49340;SDS011;35209;51.050;13.678;2024-03-07T04:36:57;34.95;;;20.83;;
49340;SDS011;35209;51.050;13.678;2024-03-07T04:42:00;38.20;;;21.15;;
49340;SDS011;35209;51.050;13.678;2024-03-07T04:47:03;37.10;;;21.95;;
49340;SDS011;35209;51.050;13.678;2024-03-07T04:52:05;42.72;;;21.83;;
49340;SDS011;35209;51.050;13.678;2024-03-07T04:57:07;39.67;;;23.92;;
49340;SDS011;35209;51.050;13.678;2024-03-07T05:02:09;37.97;;;22.42;;
49340;SDS011;35209;51.050;13.678;2024-03-07T05:07:10;40.33;;;23.30;;
49340;SDS011;35209;51.050;13.678;2024-03-07T05:12:12;38.38;;;22.27;;
49340;SDS011;35209;51.050;13.678;2024-03-07T05:17:14;48.17;;;22.02;;
49340;SDS011;35209;51.050;13.678;2024-03-07T05:22:16;37.55;;;21.83;;
49340;SDS011;35209;51.050;13.678;2024-03-07T05:27:19;39.10;;;22.65;;
49340;SDS011;35209;51.050;13.678;2024-03-07T05:32:26;45.00;;;22.63;;
49340;SDS011;35209;51.050;13.678;2024-03-07T05:37:29;47.00;;;24.57;;
49340;SDS011;35209;51.050;13.678;2024-03-07T05:42:30;32.08;;;21.45;;
49340;SDS011;35209;51.050;13.678;2024-03-07T05:47:33;33.78;;;20.42;;
49340;SDS011;35209;51.050;13.678;2024-03-07T05:52:35;31.63;;;22.52;;
49340;SDS011;35209;51.050;13.678;2024-03-07T05:57:38;32.97;;;19.88;;
49340;SDS011;35209;51.050;13.678;2024-03-07T06:02:44;45.65;;;26.38;;
49340;SDS011;35209;51.050;13.678;2024-03-07T06:07:46;43.40;;;22.13;;
49340;SDS011;35209;51.050;13.678;2024-03-07T06:12:47;25.55;;;19.95;;
49340;SDS011;35209;51.050;13.678;2024-03-07T06:18:06;33.53;;;21.13;;
49340;SDS011;35209;51.050;13.678;2024-03-07T06:23:13;34.10;;;21.02;;
49340;SDS011;35209;51.050;13.678;2024-03-07T06:28:17;27.52;;;20.00;;
49340;SDS011;35209;51.050;13.678;2024-03-07T06:33:19;31.33;;;19.70;;
49340;SDS011;35209;51.050;13.678;2024-03-07T06:38:27;42.50;;;21.65;;
49340;SDS011;35209;51.050;13.678;2024-03-07T06:43:28;43.35;;;20.42;;
49340;SDS011;35209;51.050;13.678;2024-03-07T06:48:30;28.45;;;20.05;;
49340;SDS011;35209;51.050;13.678;2024-03-07T06:53:32;26.90;;;19.85;;
49340;SDS011;35209;51.050;13.678;2024-03-07T06:58:34;30.00;;;19.80;;
49340;SDS011;35209;51.050;13.678;2024-03-07T07:03:36;22.88;;;18.23;;
49340;SDS011;35209;51.050;13.678;2024-03-07T07:08:38;24.83;;;17.92;;
49340;SDS011;35209;51.050;13.678;2024-03-07T07:13:41;28.17;;;18.40;;
49340;SDS011;35209;51.050;13.678;2024-03-07T07:18:43;29.45;;;17.90;;
49340;SDS011;35209;51.050;13.678;2024-03-07T07:23:45;25.88;;;18.85;;
49340;SDS011;35209;51.050;13.678;2024-03-07T07:28:47;25.95;;;17.70;;
49340;SDS011;35209;51.050;13.678;2024-03-07T07:33:49;23.73;;;18.00;;
49340;SDS011;35209;51.050;13.678;2024-03-07T07:38:51;21.65;;;17.50;;
49340;SDS011;35209;51.050;13.678;2024-03-07T07:43:55;19.95;;;14.45;;
49340;SDS011;35209;51.050;13.678;2024-03-07T07:49:01;19.97;;;14.67;;
49340;SDS011;35209;51.050;13.678;2024-03-07T07:54:03;14.60;;;11.00;;
49340;SDS011;35209;51.050;13.678;2024-03-07T07:59:08;11.18;;;10.05;;
49340;SDS011;35209;51.050;13.678;2024-03-07T08:04:10;13.82;;;11.00;;
49340;SDS011;35209;51.050;13.678;2024-03-07T08:09:12;21.15;;;12.27;;
49340;SDS011;35209;51.050;13.678;2024-03-07T08:14:17;13.35;;;10.60;;
49340;SDS011;35209;51.050;13.678;2024-03-07T08:19:20;14.63;;;10.02;;
49340;SDS011;35209;51.050;13.678;2024-03-07T08:24:21;13.90;;;10.73;;
49340;SDS011;35209;51.050;13.678;2024-03-07T08:29:25;11.82;;;10.65;;
49340;SDS011;35209;51.050;13.678;2024-03-07T08:34:26;13.38;;;9.55;;
49340;SDS011;35209;51.050;13.678;2024-03-07T08:39:28;12.68;;;10.43;;
49340;SDS011;35209;51.050;13.678;2024-03-07T08:44:30;10.50;;;9.40;;
49340;SDS011;35209;51.050;13.678;2024-03-07T08:49:32;11.68;;;9.27;;
49340;SDS011;35209;51.050;13.678;2024-03-07T08:54:33;7.90;;;7.10;;
49340;SDS011;35209;51.050;13.678;2024-03-07T08:59:35;8.95;;;6.93;;
49340;SDS011;35209;51.050;13.678;2024-03-07T09:04:38;8.77;;;7.20;;
49340;SDS011;35209;51.050;13.678;2024-03-07T09:09:40;8.65;;;7.68;;
49340;SDS011;35209;51.050;13.678;2024-03-07T09:14:46;8.95;;;7.85;;
49340;SDS011;35209;51.050;13.678;2024-03-07T09:19:52;8.15;;;7.30;;
49340;SDS011;35209;51.050;13.678;2024-03-07T09:24:53;8.82;;;7.10;;
49340;SDS011;35209;51.050;13.678;2024-03-07T09:29:55;6.60;;;5.47;;
49340;SDS011;35209;51.050;13.678;2024-03-07T09:34:57;7.22;;;6.32;;
49340;SDS011;35209;51.050;13.678;2024-03-07T09:39:59;7.60;;;5.57;;
49340;SDS011;35209;51.050;13.678;2024-03-07T09:45:02;8.20;;;6.95;;
49340;SDS011;35209;51.050;13.678;2024-03-07T09:50:04;7.55;;;6.00;;
49340;SDS011;35209;51.050;13.678;2024-03-07T09:55:09;7.13;;;5.88;;
49340;SDS011;35209;51.050;13.678;2024-03-07T10:00:11;8.65;;;6.65;;
49340;SDS011;35209;51.050;13.678;2024-03-07T10:05:24;9.50;;;7.20;;
49340;SDS011;35209;51.050;13.678;2024-03-07T10:10:29;9.25;;;8.25;;
49340;SDS011;35209;51.050;13.678;2024-03-07T10:15:32;9.07;;;8.18;;
49340;SDS011;35209;51.050;13.678;2024-03-07T10:20:36;9.13;;;8.20;;
49340;SDS011;35209;51.050;13.678;2024-03-07T10:25:39;9.88;;;8.57;;
49340;SDS011;35209;51.050;13.678;2024-03-07T10:30:42;9.90;;;8.40;;
49340;SDS011;35209;51.050;13.678;2024-03-07T10:35:47;8.90;;;8.10;;
49340;SDS011;35209;51.050;13.678;2024-03-07T10:40:52;16.08;;;9.40;;
49340;SDS011;35209;51.050;13.678;2024-03-07T10:45:55;10.13;;;9.00;;
49340;SDS011;35209;51.050;13.678;2024-03-07T11:01:22;10.98;;;9.88;;
49340;SDS011;35209;51.050;13.678;2024-03-07T11:06:27;10.85;;;9.38;;
49340;SDS011;35209;51.050;13.678;2024-03-07T11:11:29;14.02;;;10.60;;
49340;SDS011;35209;51.050;13.678;2024-03-07T11:16:32;12.93;;;11.25;;
49340;SDS011;35209;51.050;13.678;2024-03-07T11:21:41;11.95;;;10.75;;
49340;SDS011;35209;51.050;13.678;2024-03-07T11:26:46;13.10;;;10.48;;
49340;SDS011;35209;51.050;13.678;2024-03-07T11:31:48;11.75;;;10.57;;
49340;SDS011;35209;51.050;13.678;2024-03-07T11:36:55;9.23;;;7.70;;
49340;SDS011;35209;51.050;13.678;2024-03-07T11:41:58;11.23;;;10.02;;
49340;SDS011;35209;51.050;13.678;2024-03-07T11:47:03;11.48;;;10.23;;
49340;SDS011;35209;51.050;13.678;2024-03-07T11:52:10;9.70;;;8.70;;
49340;SDS011;35209;51.050;13.678;2024-03-07T11:57:15;10.88;;;9.52;;
49340;SDS011;35209;51.050;13.678;2024-03-07T12:02:20;11.20;;;9.77;;
49340;SDS011;35209;51.050;13.678;2024-03-07T12:07:25;11.77;;;10.18;;
49340;SDS011;35209;51.050;13.678;2024-03-07T12:12:28;15.65;;;10.10;;
49340;SDS011;35209;51.050;13.678;2024-03-07T12:17:30;12.93;;;10.02;;
49340;SDS011;35209;51.050;13.678;2024-03-07T12:22:33;15.07;;;10.63;;
49340;SDS011;35209;51.050;13.678;2024-03-07T12:27:37;12.50;;;10.57;;
49340;SDS011;35209;51.050;13.678;2024-03-07T12:32:42;11.70;;;10.48;;
49340;SDS011;35209;51.050;13.678;2024-03-07T12:37:49;11.18;;;9.95;;
49340;SDS011;35209;51.050;13.678;2024-03-07T12:42:51;11.95;;;10.07;;
49340;SDS011;35209;51.050;13.678;2024-03-07T12:47:54;13.05;;;9.50;;
49340;SDS011;35209;51.050;13.678;2024-03-07T12:52:56;8.88;;;7.97;;
49340;SDS011;35209;51.050;13.678;2024-03-07T12:57:58;9.73;;;8.68;;
49340;SDS011;35209;51.050;13.678;2024-03-07T13:03:00;12.02;;;9.48;;
49340;SDS011;35209;51.050;13.678;2024-03-07T13:08:02;12.57;;;8.60;;
49340;SDS011;35209;51.050;13.678;2024-03-07T13:13:04;11.35;;;8.18;;
49340;SDS011;35209;51.050;13.678;2024-03-07T13:18:06;8.82;;;7.93;;
49340;SDS011;35209;51.050;13.678;2024-03-07T13:23:09;8.82;;;7.93;;
49340;SDS011;35209;51.050;13.678;2024-03-07T13:28:12;8.45;;;7.55;;
49340;SDS011;35209;51.050;13.678;2024-03-07T13:33:17;9.63;;;8.63;;
49340;SDS011;35209;51.050;13.678;2024-03-07T13:38:19;10.02;;;8.07;;
49340;SDS011;35209;51.050;13.678;2024-03-07T13:43:21;9.65;;;8.10;;
49340;SDS011;35209;51.050;13.678;2024-03-07T13:48:24;8.60;;;7.10;;
49340;SDS011;35209;51.050;13.678;2024-03-07T13:53:26;8.88;;;8.05;;
49340;SDS011;35209;51.050;13.678;2024-03-07T14:31:43;9.10;;;8.15;;
49340;SDS011;35209;51.050;13.678;2024-03-07T14:36:52;8.40;;;7.53;;
49340;SDS011;35209;51.050;13.678;2024-03-07T14:42:04;10.25;;;7.68;;
49340;SDS011;35209;51.050;13.678;2024-03-07T14:47:12;10.48;;;7.82;;
49340;SDS011;35209;51.050;13.678;2024-03-07T14:52:15;8.30;;;7.35;;
49340;SDS011;35209;51.050;13.678;2024-03-07T14:57:18;8.65;;;7.80;;
49340;SDS011;35209;51.050;13.678;2024-03-07T15:02:23;10.90;;;8.27;;
49340;SDS011;35209;51.050;13.678;2024-03-07T15:07:25;8.93;;;8.02;;
49340;SDS011;35209;51.050;13.678;2024-03-07T15:12:27;10.77;;;7.45;;
49340;SDS011;35209;51.050;13.678;2024-03-07T15:17:29;9.98;;;8.63;;
49340;SDS011;35209;51.050;13.678;2024-03-07T15:22:31;10.27;;;8.13;;
49340;SDS011;35209;51.050;13.678;2024-03-07T15:27:34;10.07;;;9.18;;
49340;SDS011;35209;51.050;13.678;2024-03-07T15:32:41;11.23;;;8.10;;
49340;SDS011;35209;51.050;13.678;2024-03-07T15:37:47;10.25;;;9.10;;
49340;SDS011;35209;51.050;13.678;2024-03-07T15:42:50;11.00;;;9.18;;
49340;SDS011;35209;51.050;13.678;2024-03-07T15:47:52;10.55;;;7.60;;
49340;SDS011;35209;51.050;13.678;2024-03-07T15:53:00;10.75;;;9.35;;
49340;SDS011;35209;51.050;13.678;2024-03-07T15:58:02;10.07;;;9.07;;
49340;SDS011;35209;51.050;13.678;2024-03-07T16:03:08;9.00;;;8.10;;
49340;SDS011;35209;51.050;13.678;2024-03-07T16:08:13;10.68;;;9.57;;
49340;SDS011;35209;51.050;13.678;2024-03-07T16:13:17;9.75;;;8.32;;
49340;SDS011;35209;51.050;13.678;2024-03-07T16:18:19;10.00;;;9.00;;
49340;SDS011;35209;51.050;13.678;2024-03-07T16:23:25;10.80;;;7.13;;
49340;SDS011;35209;51.050;13.678;2024-03-07T16:28:28;10.52;;;9.52;;
49340;SDS011;35209;51.050;13.678;2024-03-07T16:33:30;11.18;;;9.73;;
49340;SDS011;35209;51.050;13.678;2024-03-07T16:38:32;13.15;;;9.82;;
49340;SDS011;35209;51.050;13.678;2024-03-07T16:43:36;11.50;;;10.30;;
49340;SDS011;35209;51.050;13.678;2024-03-07T16:48:38;14.25;;;12.18;;
49340;SDS011;35209;51.050;13.678;2024-03-07T16:53:40;16.50;;;11.20;;
49340;SDS011;35209;51.050;13.678;2024-03-07T16:58:43;11.57;;;10.23;;
49340;SDS011;35209;51.050;13.678;2024-03-07T17:03:45;12.95;;;10.20;;
49340;SDS011;35209;51.050;13.678;2024-03-07T17:08:47;11.07;;;9.90;;
49340;SDS011;35209;51.050;13.678;2024-03-07T17:13:49;12.07;;;10.98;;
49340;SDS011;35209;51.050;13.678;2024-03-07T17:18:51;13.52;;;10.80;;
49340;SDS011;35209;51.050;13.678;2024-03-07T17:23:53;11.98;;;10.43;;
49340;SDS011;35209;51.050;13.678;2024-03-07T17:28:55;10.77;;;9.73;;
49340;SDS011;35209;51.050;13.678;2024-03-07T17:33:57;13.98;;;11.30;;
49340;SDS011;35209;51.050;13.678;2024-03-07T17:38:59;12.80;;;11.40;;
49340;SDS011;35209;51.050;13.678;2024-03-07T17:44:02;12.05;;;10.18;;
49340;SDS011;35209;51.050;13.678;2024-03-07T17:49:08;12.98;;;11.68;;
49340;SDS011;35209;51.050;13.678;2024-03-07T17:54:12;13.57;;;12.20;;
49340;SDS011;35209;51.050;13.678;2024-03-07T17:59:14;12.48;;;11.20;;
49340;SDS011;35209;51.050;13.678;2024-03-07T18:04:20;14.77;;;12.93;;
49340;SDS011;35209;51.050;13.678;2024-03-07T18:09:25;21.23;;;12.05;;
49340;SDS011;35209;51.050;13.678;2024-03-07T18:14:30;13.63;;;12.13;;
49340;SDS011;35209;51.050;13.678;2024-03-07T18:19:35;15.10;;;11.85;;
49340;SDS011;35209;51.050;13.678;2024-03-07T18:24:37;14.20;;;12.50;;
49340;SDS011;35209;51.050;13.678;2024-03-07T18:29:39;13.10;;;11.80;;
49340;SDS011;35209;51.050;13.678;2024-03-07T18:34:41;13.93;;;12.38;;
49340;SDS011;35209;51.050;13.678;2024-03-07T18:39:43;14.85;;;12.70;;
49340;SDS011;35209;51.050;13.678;2024-03-07T18:44:46;13.00;;;11.68;;
49340;SDS011;35209;51.050;13.678;2024-03-07T18:49:51;14.70;;;12.13;;
49340;SDS011;35209;51.050;13.678;2024-03-07T18:54:55;13.82;;;11.75;;
49340;SDS011;35209;51.050;13.678;2024-03-07T18:59:58;13.05;;;11.73;;
49340;SDS011;35209;51.050;13.678;2024-03-07T19:05:00;14.52;;;12.27;;
49340;SDS011;35209;51.050;13.678;2024-03-07T19:10:08;15.05;;;12.68;;
49340;SDS011;35209;51.050;13.678;2024-03-07T19:15:18;18.63;;;13.57;;
49340;SDS011;35209;51.050;13.678;2024-03-07T19:20:22;15.52;;;12.82;;
49340;SDS011;35209;51.050;13.678;2024-03-07T19:25:24;14.43;;;12.77;;
49340;SDS011;35209;51.050;13.678;2024-03-07T19:30:26;15.02;;;12.07;;
49340;SDS011;35209;51.050;13.678;2024-03-07T19:35:32;14.15;;;12.05;;
49340;SDS011;35209;51.050;13.678;2024-03-07T19:40:34;18.52;;;12.43;;
49340;SDS011;35209;51.050;13.678;2024-03-07T19:45:39;13.32;;;11.98;;
49340;SDS011;35209;51.050;13.678;2024-03-07T19:50:42;18.13;;;13.93;;
49340;SDS011;35209;51.050;13.678;2024-03-07T19:55:45;13.73;;;12.30;;
49340;SDS011;35209;51.050;13.678;2024-03-07T20:00:48;15.23;;;13.65;;
49340;SDS011;35209;51.050;13.678;2024-03-07T20:05:51;16.38;;;13.82;;
49340;SDS011;35209;51.050;13.678;2024-03-07T20:10:56;17.52;;;13.65;;
49340;SDS011;35209;51.050;13.678;2024-03-07T20:16:00;14.65;;;12.68;;
49340;SDS011;35209;51.050;13.678;2024-03-07T20:21:02;15.85;;;12.82;;
49340;SDS011;35209;51.050;13.678;2024-03-07T20:26:05;15.98;;;13.38;;
49340;SDS011;35209;51.050;13.678;2024-03-07T20:31:06;15.80;;;14.10;;
49340;SDS011;35209;51.050;13.678;2024-03-07T20:36:10;16.67;;;14.27;;
49340;SDS011;35209;51.050;13.678;2024-03-07T20:41:12;16.08;;;13.75;;
49340;SDS011;35209;51.050;13.678;2024-03-07T20:46:14;15.18;;;13.05;;
49340;SDS011;35209;51.050;13.678;2024-03-07T20:51:16;15.25;;;13.13;;
49340;SDS011;35209;51.050;13.678;2024-03-07T20:56:20;16.80;;;12.93;;
49340;SDS011;35209;51.050;13.678;2024-03-07T21:01:21;19.52;;;14.68;;
49340;SDS011;35209;51.050;13.678;2024-03-07T21:06:25;16.40;;;13.45;;
49340;SDS011;35209;51.050;13.678;2024-03-07T21:11:28;19.33;;;13.13;;
49340;SDS011;35209;51.050;13.678;2024-03-07T21:16:30;15.73;;;13.77;;
49340;SDS011;35209;51.050;13.678;2024-03-07T21:21:33;15.05;;;13.45;;
49340;SDS011;35209;51.050;13.678;2024-03-07T21:26:37;18.25;;;13.90;;
49340;SDS011;35209;51.050;13.678;2024-03-07T21:31:39;14.45;;;12.73;;
49340;SDS011;35209;51.050;13.678;2024-03-07T21:36:42;16.52;;;13.50;;
49340;SDS011;35209;51.050;13.678;2024-03-07T21:41:45;26.17;;;14.25;;
49340;SDS011;35209;51.050;13.678;2024-03-07T21:46:48;16.15;;;12.18;;
49340;SDS011;35209;51.050;13.678;2024-03-07T21:51:50;20.48;;;14.65;;
49340;SDS011;35209;51.050;13.678;2024-03-07T21:56:52;19.35;;;13.07;;
49340;SDS011;35209;51.050;13.678;2024-03-07T22:01:54;14.75;;;12.40;;
49340;SDS011;35209;51.050;13.678;2024-03-07T22:06:56;14.75;;;13.10;;
49340;SDS011;35209;51.050;13.678;2024-03-07T22:11:59;15.38;;;13.73;;
49340;SDS011;35209;51.050;13.678;2024-03-07T22:17:01;17.38;;;13.70;;
49340;SDS011;35209;51.050;13.678;2024-03-07T22:22:06;15.63;;;14.00;;
49340;SDS011;35209;51.050;13.678;2024-03-07T22:27:09;18.98;;;13.88;;
49340;SDS011;35209;51.050;13.678;2024-03-07T22:32:12;16.15;;;13.68;;
49340;SDS011;35209;51.050;13.678;2024-03-07T22:37:14;15.23;;;12.93;;
49340;SDS011;35209;51.050;13.678;2024-03-07T22:42:17;16.83;;;13.50;;
49340;SDS011;35209;51.050;13.678;2024-03-07T22:47:19;20.55;;;14.82;;
49340;SDS011;35209;51.050;13.678;2024-03-07T22:52:23;14.90;;;13.30;;
49340;SDS011;35209;51.050;13.678;2024-03-07T22:57:25;14.95;;;13.40;;
49340;SDS011;35209;51.050;13.678;2024-03-07T23:02:27;21.48;;;15.07;;
49340;SDS011;35209;51.050;13.678;2024-03-07T23:07:29;15.98;;;13.63;;
49340;SDS011;35209;51.050;13.678;2024-03-07T23:12:31;18.05;;;14.20;;
49340;SDS011;35209;51.050;13.678;2024-03-07T23:17:33;16.90;;;14.63;;
49340;SDS011;35209;51.050;13.678;2024-03-07T23:22:35;16.00;;;13.95;;
49340;SDS011;35209;51.050;13.678;2024-03-07T23:27:36;15.77;;;13.43;;
49340;SDS011;35209;51.050;13.678;2024-03-07T23:32:38;17.02;;;15.23;;
49340;SDS011;35209;51.050;13.678;2024-03-07T23:37:41;16.17;;;14.30;;
49340;SDS011;35209;51.050;13.678;2024-03-07T23:42:43;15.85;;;14.05;;
49340;SDS011;35209;51.050;13.678;2024-03-07T23:47:47;15.95;;;13.82;;
49340;SDS011;35209;51.050;13.678;2024-03-07T23:52:49;15.63;;;13.27;;
49340;SDS011;35209;51.050;13.678;2024-03-07T23:57:51;15.35;;;13.70;;
